Alkin Kalkavan — TCOL6 — position and weather

sailwx.info

Track history (hours):
 
Tides and Currents Weather Stations Pressure Air Temp Water Temp Dewpoint Dewpoint Depression Visibility Wind Speed Wind Dir Waves Ship Positions

Alkin Kalkavan

Last reported at 2014-Jul-27 10:26 UTC. Time now 2014-Jul-29 18:56 UTC.
Position N 40°27' E 026°49'.

Length 148 m; draft 6.9 m.

Type: Ship (hazmat cat A). MMSI: 271000905.

Date/timePositionNaut miles runAvg speedWind from/ knotsBaromVisibWave heightAir tempDewpointWater temp
2014-Jul-27 10:26N 40°27' E 026°49'4013.1
2014-Jul-27 07:23N 40°01' E 026°09'1113.2
2014-Jul-27 06:33N 39°56' E 025°56'1614.3
2014-Jul-27 05:24N 39°42' E 025°45'1315.1
2014-Jul-27 04:33N 39°30' E 025°38'1414.2
2014-Jul-27 03:32N 39°17' E 025°29'1413.6
2014-Jul-27 02:29N 39°05' E 025°21'1414.3
2014-Jul-27 01:28N 38°52' E 025°13'1314.5
2014-Jul-27 00:33N 38°40' E 025°05'7614.2
2014-Jul-26 19:12N 37°31' E 024°24'3914.4
2014-Jul-26 16:30N 37°00' E 023°54'38814.4
2014-Jul-25 13:33N 35°54' E 015°59'1414.5
2014-Jul-25 12:34N 35°52' E 015°42'1514.5
2014-Jul-25 11:34N 35°51' E 015°24'1514.5
2014-Jul-25 10:34N 35°51' E 015°06'1414.3
2014-Jul-25 09:34N 35°49' E 014°48'1312.9
2014-Jul-25 08:34N 35°49' E 014°32'0 0.3
2014-Jul-25 07:23N 35°49' E 014°33'0 0.0
2014-Jul-25 05:25N 35°49' E 014°33'0 0.0
2014-Jul-25 02:33N 35°49' E 014°33'0 0.0
2014-Jul-24 23:28N 35°49' E 014°33'0 0.0
2014-Jul-24 22:31N 35°49' E 014°33'0 0.0
2014-Jul-24 21:33N 35°49' E 014°33'0 0.0
2014-Jul-24 20:33N 35°49' E 014°33'0 0.0
2014-Jul-24 19:17N 35°49' E 014°33'0 0.0
2014-Jul-24 18:32N 35°49' E 014°33'0 0.0
2014-Jul-24 17:26N 35°49' E 014°33'0 0.0
2014-Jul-24 16:25N 35°49' E 014°33'0 0.0
2014-Jul-24 15:31N 35°49' E 014°33'0 0.0
2014-Jul-24 14:33N 35°49' E 014°33'0 0.0
2014-Jul-24 13:30N 35°49' E 014°33'0 0.0
2014-Jul-24 11:31N 35°49' E 014°33'0 0.0
2014-Jul-24 10:31N 35°49' E 014°33'6 3.9
2014-Jul-24 09:05N 35°50' E 014°39'4 0.2
2014-Jul-23 18:16N 35°48' E 014°35'2 0.6
2014-Jul-23 14:17N 35°49' E 014°33'41912.8
2014-Jul-22 05:25N 36°24' E 023°10'1416.2
2014-Jul-22 04:32N 36°33' E 023°24'1716.9
2014-Jul-22 03:33N 36°45' E 023°39'1716.9
2014-Jul-22 02:33N 36°58' E 023°51'2016.9
2014-Jul-22 01:24N 37°14' E 024°06'2216.8
2014-Jul-22 00:03N 37°32' E 024°22'816.1
2014-Jul-21 23:32N 37°39' E 024°27'7516.8
2014-Jul-21 19:06N 38°47' E 025°08'1017.2
2014-Jul-21 18:32N 38°56' E 025°13'5217.4
2014-Jul-21 15:33N 39°42' E 025°43'  
2014-Jul-18 02:07N 45°47' E 031°38'18217.2
2014-Jul-17 15:33N 43°39' E 034°40'1716.7
2014-Jul-17 14:33N 43°30' E 034°59'1716.8
2014-Jul-17 13:33N 43°20' E 035°18'1716.9
2014-Jul-17 12:33N 43°10' E 035°37'1716.8
2014-Jul-17 11:33N 43°00' E 035°55'1716.9
2014-Jul-17 10:33N 42°50' E 036°14'  
Track history (hours):
 
Tides and Currents Weather Stations Pressure Air Temp Water Temp Dewpoint Dewpoint Depression Visibility Wind Speed Wind Dir Waves Ship Positions

Alkin Kalkavan

Last reported at 2014-Jul-27 10:26 UTC. Time now 2014-Jul-29 18:56 UTC.
Position N 40°27' E 026°49'.

Length 148 m; draft 6.9 m.

Type: Ship (hazmat cat A). MMSI: 271000905.

Date/timePositionNaut miles runAvg speedWind from/ knotsBaromVisibWave heightAir tempDewpointWater temp
2014-Jul-27 10:26N 40°27' E 026°49'4013.1
2014-Jul-27 07:23N 40°01' E 026°09'1113.2
2014-Jul-27 06:33N 39°56' E 025°56'1614.3
2014-Jul-27 05:24N 39°42' E 025°45'1315.1
2014-Jul-27 04:33N 39°30' E 025°38'1414.2
2014-Jul-27 03:32N 39°17' E 025°29'1413.6
2014-Jul-27 02:29N 39°05' E 025°21'1414.3
2014-Jul-27 01:28N 38°52' E 025°13'1314.5
2014-Jul-27 00:33N 38°40' E 025°05'7614.2
2014-Jul-26 19:12N 37°31' E 024°24'3914.4
2014-Jul-26 16:30N 37°00' E 023°54'38814.4
2014-Jul-25 13:33N 35°54' E 015°59'1414.5
2014-Jul-25 12:34N 35°52' E 015°42'1514.5
2014-Jul-25 11:34N 35°51' E 015°24'1514.5
2014-Jul-25 10:34N 35°51' E 015°06'1414.3
2014-Jul-25 09:34N 35°49' E 014°48'1312.9
2014-Jul-25 08:34N 35°49' E 014°32'0 0.3
2014-Jul-25 07:23N 35°49' E 014°33'0 0.0
2014-Jul-25 05:25N 35°49' E 014°33'0 0.0
2014-Jul-25 02:33N 35°49' E 014°33'0 0.0
2014-Jul-24 23:28N 35°49' E 014°33'0 0.0
2014-Jul-24 22:31N 35°49' E 014°33'0 0.0
2014-Jul-24 21:33N 35°49' E 014°33'0 0.0
2014-Jul-24 20:33N 35°49' E 014°33'0 0.0
2014-Jul-24 19:17N 35°49' E 014°33'0 0.0
2014-Jul-24 18:32N 35°49' E 014°33'0 0.0
2014-Jul-24 17:26N 35°49' E 014°33'0 0.0
2014-Jul-24 16:25N 35°49' E 014°33'0 0.0
2014-Jul-24 15:31N 35°49' E 014°33'0 0.0
2014-Jul-24 14:33N 35°49' E 014°33'0 0.0
2014-Jul-24 13:30N 35°49' E 014°33'0 0.0
2014-Jul-24 11:31N 35°49' E 014°33'0 0.0
2014-Jul-24 10:31N 35°49' E 014°33'6 3.9
2014-Jul-24 09:05N 35°50' E 014°39'4 0.2
2014-Jul-23 18:16N 35°48' E 014°35'2 0.6
2014-Jul-23 14:17N 35°49' E 014°33'41912.8
2014-Jul-22 05:25N 36°24' E 023°10'1416.2
2014-Jul-22 04:32N 36°33' E 023°24'1716.9
2014-Jul-22 03:33N 36°45' E 023°39'1716.9
2014-Jul-22 02:33N 36°58' E 023°51'2016.9
2014-Jul-22 01:24N 37°14' E 024°06'2216.8
2014-Jul-22 00:03N 37°32' E 024°22'816.1
2014-Jul-21 23:32N 37°39' E 024°27'7516.8
2014-Jul-21 19:06N 38°47' E 025°08'1017.2
2014-Jul-21 18:32N 38°56' E 025°13'5217.4
2014-Jul-21 15:33N 39°42' E 025°43'  
2014-Jul-18 02:07N 45°47' E 031°38'18217.2
2014-Jul-17 15:33N 43°39' E 034°40'1716.7
2014-Jul-17 14:33N 43°30' E 034°59'1716.8
2014-Jul-17 13:33N 43°20' E 035°18'1716.9
2014-Jul-17 12:33N 43°10' E 035°37'1716.8
2014-Jul-17 11:33N 43°00' E 035°55'1716.9
2014-Jul-17 10:33N 42°50' E 036°14'  

Dump ship's entire track history